Time;durP1;ratioP1;P1;durP2;ratioP2;P2;SDS_P1;SDS_P2;PMS_P1;PMS_P2;Temp;Humidity;BMP_temperature;BMP_pressure;BME280_temperature;BME280_humidity;BME280_pressure;Samples;Min_cycle;Max_cycle;Signal;HPM_P1;HPM_P2
2021/05/18 00:01:48;;;;;;;1.33;0.63;;;11.00;99.90;;;;;;4162612;28;20212;-76
2021/05/18 00:03:50;;;;;;;0.87;0.70;;;11.00;99.90;;;;;;4158844;28;20209;-76
2021/05/18 00:05:53;;;;;;;0.60;0.60;;;11.00;99.90;;;;;;4160410;28;20606;-76
2021/05/18 00:07:57;;;;;;;1.30;0.90;;;11.00;99.90;;;;;;4162851;28;20229;-76
2021/05/18 00:12:17;;;;;;;1.33;0.60;;;11.00;99.90;;;;;;4156519;28;20281;-77
2021/05/18 00:14:23;;;;;;;1.57;0.73;;;11.00;99.90;;;;;;4167522;28;20212;-76
2021/05/18 00:16:24;;;;;;;1.10;0.73;;;11.00;99.90;;;;;;4159894;28;20690;-76
2021/05/18 00:18:26;;;;;;;2.47;0.80;;;11.10;99.90;;;;;;4155410;28;20480;-76
2021/05/18 00:20:28;;;;;;;1.27;0.90;;;11.10;99.90;;;;;;4160379;28;20968;-77
2021/05/18 00:22:29;;;;;;;4.70;0.97;;;11.10;99.90;;;;;;4167315;28;20511;-75
2021/05/18 00:24:30;;;;;;;1.87;1.00;;;11.10;99.90;;;;;;4164852;28;20219;-75
2021/05/18 00:26:31;;;;;;;1.23;1.00;;;11.10;99.90;;;;;;4160314;28;20240;-74
2021/05/18 00:28:33;;;;;;;2.57;0.97;;;11.20;99.90;;;;;;4157504;28;20232;-75
2021/05/18 00:30:35;;;;;;;2.63;1.70;;;11.20;99.90;;;;;;4163193;28;20211;-77
2021/05/18 00:32:39;;;;;;;3.23;1.70;;;11.20;99.90;;;;;;4161611;28;20216;-76
2021/05/18 00:34:40;;;;;;;3.13;1.63;;;11.30;99.90;;;;;;4166399;28;20235;-75
2021/05/18 00:36:41;;;;;;;2.97;1.90;;;11.20;99.90;;;;;;4163231;28;20227;-75
2021/05/18 00:38:42;;;;;;;3.10;2.13;;;11.30;99.90;;;;;;4154385;28;20680;-76
2021/05/18 00:40:44;;;;;;;3.80;2.20;;;11.30;99.90;;;;;;4147259;28;20205;-76
2021/05/18 00:42:52;;;;;;;4.00;2.33;;;11.30;99.90;;;;;;4153258;28;20576;-75
2021/05/18 00:44:54;;;;;;;3.53;2.50;;;11.40;99.90;;;;;;4158354;28;20207;-75
2021/05/18 00:46:56;;;;;;;4.77;2.60;;;11.40;99.90;;;;;;4163996;28;20644;-75
2021/05/18 00:48:57;;;;;;;5.17;3.50;;;11.40;99.90;;;;;;4164268;28;20223;-75
2021/05/18 00:51:02;;;;;;;3.93;3.00;;;11.40;99.90;;;;;;4156082;28;20622;-78
2021/05/18 00:53:03;;;;;;;4.13;2.80;;;11.40;99.90;;;;;;4151998;28;20213;-76
2021/05/18 00:55:07;;;;;;;5.57;3.17;;;11.40;99.90;;;;;;4162317;28;20588;-76
2021/05/18 00:59:29;;;;;;;4.50;2.90;;;11.50;99.90;;;;;;4178946;28;20591;-77
2021/05/18 01:01:31;;;;;;;4.30;3.10;;;11.50;99.90;;;;;;4176288;28;20201;-77
2021/05/18 01:03:35;;;;;;;5.13;3.20;;;11.50;99.90;;;;;;4178222;28;20936;-77
2021/05/18 01:07:56;;;;;;;5.00;3.40;;;11.50;99.90;;;;;;4171249;28;20238;-77
2021/05/18 01:09:58;;;;;;;6.43;3.60;;;11.50;99.90;;;;;;4167200;28;20660;-77
2021/05/18 01:11:59;;;;;;;4.40;3.27;;;11.50;99.90;;;;;;4171498;28;20237;-77
2021/05/18 01:14:05;;;;;;;6.33;3.97;;;11.50;99.90;;;;;;4170639;28;20219;-77
2021/05/18 01:16:08;;;;;;;6.50;3.80;;;11.60;99.90;;;;;;4174501;28;20667;-77
2021/05/18 01:18:09;;;;;;;4.20;3.47;;;11.50;99.90;;;;;;4170521;28;20281;-77
2021/05/18 01:20:13;;;;;;;7.07;3.77;;;11.50;99.90;;;;;;4169977;28;20592;-77
2021/05/18 01:22:15;;;;;;;5.00;3.63;;;11.50;99.90;;;;;;4170555;28;20219;-77
2021/05/18 01:24:18;;;;;;;6.93;3.63;;;11.50;99.90;;;;;;4171618;28;20298;-76
2021/05/18 01:26:19;;;;;;;7.33;3.90;;;11.40;99.90;;;;;;4165948;28;20223;-80
2021/05/18 01:28:22;;;;;;;6.90;4.13;;;11.40;99.90;;;;;;4169668;28;20224;-80
2021/05/18 01:30:23;;;;;;;8.60;4.00;;;11.40;99.90;;;;;;4163372;28;20253;-77
2021/05/18 01:32:26;;;;;;;6.07;3.93;;;11.30;99.90;;;;;;4169878;28;20223;-78
2021/05/18 01:34:27;;;;;;;6.47;4.40;;;11.20;99.90;;;;;;4169954;28;20656;-78
2021/05/18 01:36:30;;;;;;;7.67;4.77;;;11.10;99.90;;;;;;4166123;28;20211;-80
2021/05/18 01:38:37;;;;;;;6.67;4.63;;;11.00;99.90;;;;;;4172183;28;20606;-80
2021/05/18 01:42:59;;;;;;;10.17;5.23;;;10.80;99.90;;;;;;4166611;28;20237;-80
2021/05/18 01:45:06;;;;;;;8.47;5.07;;;10.80;99.90;;;;;;4170822;28;20207;-81
2021/05/18 01:47:10;;;;;;;9.77;4.97;;;10.70;99.90;;;;;;4165394;28;20327;-81
2021/05/18 01:49:16;;;;;;;8.23;4.93;;;10.70;99.90;;;;;;4170739;28;20592;-81
2021/05/18 01:51:17;;;;;;;8.20;5.47;;;10.60;99.90;;;;;;4163366;28;20231;-80
2021/05/18 01:53:20;;;;;;;7.43;4.90;;;10.60;99.90;;;;;;4162774;28;20592;-81
2021/05/18 01:55:25;;;;;;;10.40;5.50;;;10.60;99.90;;;;;;4170219;28;20215;-80
2021/05/18 01:57:27;;;;;;;8.77;5.73;;;10.50;99.90;;;;;;4173735;28;20246;-80
2021/05/18 01:59:31;;;;;;;10.43;5.37;;;10.50;99.90;;;;;;4167341;28;20210;-80
2021/05/18 02:01:32;;;;;;;9.20;5.27;;;10.50;99.90;;;;;;4176636;28;20233;-80
2021/05/18 02:03:33;;;;;;;8.73;5.60;;;10.40;99.90;;;;;;4174715;28;20211;-80
2021/05/18 02:05:37;;;;;;;9.07;5.03;;;10.40;99.90;;;;;;4165115;28;20207;-80
2021/05/18 02:07:41;;;;;;;8.77;5.43;;;10.40;99.90;;;;;;4161408;28;20227;-81
2021/05/18 02:09:42;;;;;;;9.10;5.23;;;10.40;99.90;;;;;;4173101;28;20211;-80
2021/05/18 02:11:45;;;;;;;11.47;6.37;;;10.40;99.90;;;;;;4162355;28;20231;-80
2021/05/18 02:13:48;;;;;;;11.23;6.73;;;10.40;99.90;;;;;;4165885;28;20206;-80
2021/05/18 02:15:53;;;;;;;12.60;7.30;;;10.40;99.90;;;;;;4168393;28;20636;-81
2021/05/18 02:18:26;;;;;;;13.17;6.93;;;10.40;99.90;;;;;;4165882;28;20319;-79
2021/05/18 02:20:34;;;;;;;9.80;6.30;;;10.50;99.90;;;;;;4166971;28;20218;-80
2021/05/18 02:25:05;;;;;;;9.77;5.77;;;10.40;99.90;;;;;;4172023;28;20217;-80
2021/05/18 02:27:08;;;;;;;12.90;6.30;;;10.40;99.90;;;;;;4168797;28;21379;-80
2021/05/18 02:29:09;;;;;;;10.57;6.30;;;10.40;99.90;;;;;;4161371;28;20234;-79
2021/05/18 02:31:11;;;;;;;11.43;6.30;;;10.40;99.90;;;;;;4167308;28;20256;-80
2021/05/18 02:33:12;;;;;;;9.90;5.40;;;10.40;99.90;;;;;;4163892;28;20591;-80
2021/05/18 02:35:14;;;;;;;9.17;5.73;;;10.40;99.90;;;;;;4168101;28;20470;-80
2021/05/18 02:37:15;;;;;;;11.80;6.03;;;10.40;99.90;;;;;;4169535;28;20595;-81
2021/05/18 02:39:17;;;;;;;10.67;5.93;;;10.40;99.90;;;;;;4163686;28;20203;-80
2021/05/18 02:41:18;;;;;;;11.77;6.60;;;10.40;99.90;;;;;;4169957;28;20217;-80
2021/05/18 02:43:24;;;;;;;9.70;6.30;;;10.40;99.90;;;;;;4170183;28;20703;-80
2021/05/18 02:45:31;;;;;;;10.10;6.60;;;10.40;99.90;;;;;;4172247;28;20210;-80
2021/05/18 02:49:51;;;;;;;11.30;6.47;;;10.40;99.90;;;;;;4170655;28;20637;-80
2021/05/18 02:51:53;;;;;;;10.80;6.40;;;10.30;99.90;;;;;;4164295;28;20207;-80
2021/05/18 02:53:54;;;;;;;11.37;6.60;;;10.40;99.90;;;;;;4165928;28;20624;-80
2021/05/18 02:55:59;;;;;;;11.43;6.60;;;10.30;99.90;;;;;;4172517;28;20215;-80
2021/05/18 02:58:00;;;;;;;13.70;6.67;;;10.40;99.90;;;;;;4164911;28;20281;-80
2021/05/18 03:00:06;;;;;;;9.83;6.20;;;10.40;99.90;;;;;;4162074;28;20211;-80
2021/05/18 03:02:07;;;;;;;9.67;6.43;;;10.40;99.90;;;;;;4165522;28;20219;-79
2021/05/18 03:04:09;;;;;;;9.73;6.33;;;10.40;99.90;;;;;;4168955;28;20643;-80
2021/05/18 03:06:10;;;;;;;14.30;7.60;;;10.40;99.90;;;;;;4168852;28;20222;-80
2021/05/18 03:08:11;;;;;;;11.33;7.40;;;10.50;99.90;;;;;;4167083;28;20743;-80
2021/05/18 03:10:14;;;;;;;11.37;7.00;;;10.50;99.90;;;;;;4164826;28;21270;-80
2021/05/18 03:12:16;;;;;;;11.77;6.80;;;10.50;99.90;;;;;;4162679;28;20583;-80
2021/05/18 03:14:18;;;;;;;10.07;6.90;;;10.50;99.90;;;;;;4166234;28;20226;-80
2021/05/18 03:16:20;;;;;;;13.50;7.33;;;10.50;99.90;;;;;;4161445;28;20236;-80
2021/05/18 03:18:21;;;;;;;10.03;6.57;;;10.50;99.90;;;;;;4165215;28;20211;-79
2021/05/18 03:20:23;;;;;;;10.47;6.60;;;10.40;99.90;;;;;;4163832;28;20885;-78
2021/05/18 03:22:24;;;;;;;12.17;7.20;;;10.40;99.90;;;;;;4167052;28;20210;-78
2021/05/18 03:24:26;;;;;;;11.30;7.23;;;10.50;99.90;;;;;;4162249;28;20207;-80
2021/05/18 03:26:27;;;;;;;10.60;6.90;;;10.50;99.90;;;;;;4166290;28;20672;-80
2021/05/18 03:28:29;;;;;;;10.77;6.90;;;10.50;99.90;;;;;;4169233;28;20250;-80
2021/05/18 03:30:45;;;;;;;10.03;6.43;;;10.50;99.90;;;;;;4167168;28;20276;-80
2021/05/18 03:35:08;;;;;;;10.47;6.97;;;10.50;99.90;;;;;;4165716;28;20218;-80
2021/05/18 03:37:14;;;;;;;10.93;7.40;;;10.50;99.90;;;;;;4171036;28;20227;-80
2021/05/18 03:39:16;;;;;;;13.07;7.50;;;10.50;99.90;;;;;;4173274;28;20234;-80
2021/05/18 03:41:20;;;;;;;13.23;8.10;;;10.50;99.90;;;;;;4169012;28;20238;-80
2021/05/18 03:43:37;;;;;;;13.50;7.53;;;10.60;99.90;;;;;;4173802;28;20600;-79
2021/05/18 03:45:43;;;;;;;14.00;7.60;;;10.60;99.90;;;;;;4179188;28;20257;-80
2021/05/18 03:52:27;;;;;;;12.20;7.43;;;10.60;99.90;;;;;;4179521;28;20958;-80
2021/05/18 03:54:37;;;;;;;10.27;6.60;;;10.60;99.90;;;;;;4181170;28;20214;-80
2021/05/18 04:03:41;;;;;;;13.23;8.13;;;10.60;99.90;;;;;;4179655;28;20256;-80
2021/05/18 04:10:40;;;;;;;13.37;8.30;;;10.60;99.90;;;;;;4173496;28;20205;-81
2021/05/18 04:12:45;;;;;;;15.07;8.47;;;10.60;99.90;;;;;;4176287;28;20210;-80
2021/05/18 04:17:05;;;;;;;13.27;8.40;;;10.60;99.90;;;;;;4177003;28;21473;-79
2021/05/18 04:19:09;;;;;;;14.03;8.53;;;10.60;99.90;;;;;;4180270;28;20234;-79
2021/05/18 04:21:15;;;;;;;13.97;8.23;;;10.60;99.90;;;;;;4174498;28;20270;-80
2021/05/18 04:26:00;;;;;;;12.60;7.33;;;10.70;99.90;;;;;;4169770;28;20562;-80
2021/05/18 04:51:32;;;;;;;10.17;6.77;;;10.80;99.90;;;;;;4151266;28;20217;-79
2021/05/18 04:53:46;;;;;;;9.53;6.17;;;10.80;99.90;;;;;;4177586;28;20273;-79
2021/05/18 05:00:40;;;;;;;10.77;6.67;;;10.70;99.90;;;;;;4164976;28;20213;-80
2021/05/18 05:07:26;;;;;;;10.63;6.13;;;10.70;99.90;;;;;;4175868;28;20232;-80
2021/05/18 05:09:30;;;;;;;12.57;6.60;;;10.70;99.90;;;;;;4175235;28;20230;-80
2021/05/18 05:14:17;;;;;;;10.97;6.60;;;10.70;99.90;;;;;;4177717;28;20240;-79
2021/05/18 05:16:19;;;;;;;12.30;6.50;;;10.80;99.90;;;;;;4181966;28;20295;-80
2021/05/18 05:18:20;;;;;;;11.80;6.70;;;10.70;99.90;;;;;;4176203;28;20229;-79
2021/05/18 05:20:21;;;;;;;10.03;6.27;;;10.80;99.90;;;;;;4178397;28;20214;-79
2021/05/18 05:22:22;;;;;;;11.73;6.10;;;10.80;99.90;;;;;;4180907;28;20216;-79
2021/05/18 05:24:24;;;;;;;11.13;6.07;;;10.80;99.90;;;;;;4179341;28;20207;-78
2021/05/18 05:26:27;;;;;;;9.03;5.90;;;10.80;99.90;;;;;;4181809;28;20219;-78
2021/05/18 05:28:28;;;;;;;100.67;55.07;;;10.80;99.90;;;;;;4177017;28;20238;-77
2021/05/18 05:30:30;;;;;;;30.70;17.83;;;10.90;99.90;;;;;;4175893;28;20210;-79
2021/05/18 05:32:31;;;;;;;15.30;7.93;;;10.90;99.90;;;;;;4177009;28;20264;-79
2021/05/18 05:34:32;;;;;;;12.17;6.37;;;10.90;99.90;;;;;;4184893;28;20300;-79
2021/05/18 05:36:34;;;;;;;10.87;5.77;;;10.90;99.90;;;;;;4172686;28;20207;-79
2021/05/18 05:38:35;;;;;;;10.60;6.20;;;11.00;99.90;;;;;;4181501;28;20202;-78
2021/05/18 05:40:36;;;;;;;11.90;5.93;;;11.00;99.90;;;;;;4182762;28;20204;-78
2021/05/18 05:42:38;;;;;;;11.43;6.40;;;11.00;99.90;;;;;;4186046;28;20207;-78
2021/05/18 05:44:40;;;;;;;11.37;6.37;;;11.00;99.90;;;;;;4172961;28;20226;-78
2021/05/18 05:46:42;;;;;;;10.37;6.03;;;11.10;99.90;;;;;;4167863;28;20253;-78
2021/05/18 05:48:43;;;;;;;10.97;6.43;;;11.10;99.90;;;;;;4172994;28;20231;-79
2021/05/18 05:50:44;;;;;;;8.57;5.63;;;11.10;99.90;;;;;;4171825;28;20726;-78
2021/05/18 05:52:46;;;;;;;10.70;5.70;;;11.00;99.90;;;;;;4173136;28;20219;-78
2021/05/18 05:54:48;;;;;;;11.40;6.20;;;11.00;99.90;;;;;;4167986;28;20570;-79
2021/05/18 05:56:50;;;;;;;11.63;6.30;;;11.10;99.90;;;;;;4169342;28;20245;-78
2021/05/18 05:58:52;;;;;;;13.47;6.90;;;11.20;99.90;;;;;;4169541;28;20628;-79
2021/05/18 06:00:53;;;;;;;14.67;6.97;;;11.10;99.90;;;;;;4172926;28;20215;-79
2021/05/18 06:02:55;;;;;;;13.40;7.50;;;11.20;99.90;;;;;;4166231;28;20211;-79
2021/05/18 06:04:56;;;;;;;12.37;6.57;;;11.20;99.90;;;;;;4166847;28;20584;-79
2021/05/18 06:06:58;;;;;;;7.97;5.33;;;11.30;99.90;;;;;;4165840;28;20235;-79
2021/05/18 06:08:59;;;;;;;11.23;5.73;;;11.30;99.90;;;;;;4165470;28;20615;-79
2021/05/18 06:11:04;;;;;;;8.77;5.77;;;11.30;99.90;;;;;;4166422;28;20212;-79
2021/05/18 06:34:28;;;;;;;12.30;6.33;;;11.50;99.90;;;;;;4166090;28;20222;-79
2021/05/18 06:45:41;;;;;;;12.27;5.90;;;11.50;99.90;;;;;;4137003;28;20218;-79
2021/05/18 06:46:18;;;;;;;12.23;6.33;;;11.60;99.90;;;;;;4159694;28;20212;-79
2021/05/18 06:48:20;;;;;;;11.87;5.47;;;11.70;99.90;;;;;;4163629;28;20227;-79
2021/05/18 06:50:28;;;;;;;9.50;5.57;;;11.70;99.90;;;;;;4158599;28;20217;-79
2021/05/18 06:52:30;;;;;;;11.93;6.43;;;11.80;99.90;;;;;;4159410;28;20306;-76
2021/05/18 06:54:31;;;;;;;14.07;6.00;;;11.90;99.90;;;;;;4163461;28;20755;-77
2021/05/18 06:56:35;;;;;;;15.80;6.20;;;11.90;99.90;;;;;;4162051;28;20624;-78
2021/05/18 07:01:01;;;;;;;9.57;5.50;;;11.90;99.90;;;;;;4133340;28;20220;-78
2021/05/18 07:03:04;;;;;;;14.03;6.80;;;11.80;99.90;;;;;;4158088;28;20212;-78
2021/05/18 07:05:13;;;;;;;13.20;6.60;;;11.90;99.90;;;;;;4163251;28;20226;-78
2021/05/18 07:07:18;;;;;;;12.03;5.93;;;11.90;99.90;;;;;;4162937;28;20242;-78
2021/05/18 07:09:19;;;;;;;15.40;6.00;;;12.00;99.90;;;;;;4156198;28;20491;-78
2021/05/18 07:11:21;;;;;;;8.70;5.60;;;12.30;99.90;;;;;;4159983;28;20219;-78
2021/05/18 07:13:22;;;;;;;9.23;5.80;;;12.40;99.90;;;;;;4161156;28;20243;-78
2021/05/18 07:15:26;;;;;;;11.67;5.37;;;12.50;99.90;;;;;;4159699;28;20413;-78
2021/05/18 07:17:27;;;;;;;8.77;5.20;;;12.60;99.90;;;;;;4158524;28;20233;-78
2021/05/18 07:19:28;;;;;;;9.40;4.40;;;12.50;99.90;;;;;;4163658;28;20671;-78
2021/05/18 07:21:30;;;;;;;11.37;5.27;;;12.60;99.90;;;;;;4165368;28;20247;-78
2021/05/18 07:23:33;;;;;;;7.17;4.37;;;12.50;99.90;;;;;;4160830;28;20208;-78
2021/05/18 07:25:34;;;;;;;9.07;4.37;;;12.50;99.90;;;;;;4164910;28;20654;-78
2021/05/18 07:27:36;;;;;;;11.83;5.00;;;12.40;99.90;;;;;;4160838;28;20233;-78
2021/05/18 07:29:37;;;;;;;11.57;5.10;;;12.40;99.90;;;;;;4166038;28;20239;-78
2021/05/18 07:31:38;;;;;;;9.20;5.27;;;12.30;99.90;;;;;;4164612;28;20217;-78
2021/05/18 07:33:40;;;;;;;7.37;4.40;;;12.30;99.90;;;;;;4167646;28;20209;-77
2021/05/18 07:35:43;;;;;;;9.17;4.33;;;12.40;99.90;;;;;;4168987;28;20213;-77
2021/05/18 07:37:45;;;;;;;7.63;3.90;;;12.40;99.90;;;;;;4163216;28;20573;-78
2021/05/18 07:39:46;;;;;;;9.87;4.67;;;12.50;99.90;;;;;;4163175;28;20209;-78
2021/05/18 07:41:47;;;;;;;8.10;4.13;;;12.60;99.90;;;;;;4167702;28;20758;-78
2021/05/18 07:43:48;;;;;;;10.07;4.30;;;12.70;99.90;;;;;;4167343;28;20701;-78
2021/05/18 07:45:53;;;;;;;11.80;4.37;;;12.80;99.90;;;;;;4165660;28;20206;-78
2021/05/18 07:48:01;;;;;;;7.03;4.20;;;13.00;99.90;;;;;;4164208;28;20264;-78
2021/05/18 07:50:05;;;;;;;9.27;4.40;;;13.20;99.90;;;;;;4164277;28;20233;-78
2021/05/18 07:59:22;;;;;;;7.37;3.77;;;13.70;99.00;;;;;;4167044;28;20221;-78
2021/05/18 08:06:02;;;;;;;5.57;3.43;;;14.00;96.70;;;;;;4170048;28;20642;-78
2021/05/18 08:08:04;;;;;;;6.97;3.57;;;14.10;96.40;;;;;;4170336;28;20244;-78
2021/05/18 08:10:11;;;;;;;7.63;3.07;;;14.00;96.30;;;;;;4167061;28;20238;-78
2021/05/18 08:12:12;;;;;;;9.77;4.00;;;14.10;95.90;;;;;;4170327;28;20213;-78
2021/05/18 08:14:14;;;;;;;14.70;4.47;;;14.20;95.70;;;;;;4168098;28;20663;-78
2021/05/18 08:21:25;;;;;;;9.00;4.20;;;14.30;93.10;;;;;;4164344;28;20236;-78
2021/05/18 10:22:29;;;;;;;6.03;2.73;;;16.10;85.50;;;;;;4137072;28;20303;-77
2021/05/18 10:27:42;;;;;;;74.20;40.80;;;16.40;80.20;;;;;;4132017;28;20712;-77
2021/05/18 10:35:51;;;;;;;5.47;3.37;;;16.70;71.00;;;;;;4163427;28;20206;-78
2021/05/18 10:38:00;;;;;;;4.97;3.20;;;16.80;70.70;;;;;;4162525;28;20249;-76
2021/05/18 10:40:32;;;;;;;12.07;4.70;;;16.80;75.80;;;;;;4166598;28;20301;-77
2021/05/18 10:42:34;;;;;;;10.73;4.43;;;16.80;79.10;;;;;;4162082;28;20211;-76
2021/05/18 10:44:54;;;;;;;14.20;5.87;;;16.80;81.00;;;;;;4158879;28;20217;-77
2021/05/18 10:46:57;;;;;;;11.00;4.97;;;17.00;80.70;;;;;;4161274;28;20612;-78
2021/05/18 10:49:07;;;;;;;7.17;3.73;;;17.00;80.80;;;;;;4163706;28;20707;-76
2021/05/18 10:51:25;;;;;;;11.27;3.97;;;17.20;78.80;;;;;;4162415;28;20295;-76
2021/05/18 10:53:29;;;;;;;8.03;3.37;;;17.30;76.30;;;;;;4159817;28;20208;-77
2021/05/18 10:55:30;;;;;;;7.03;3.20;;;17.40;74.60;;;;;;4170465;28;20265;-77
2021/05/18 10:57:32;;;;;;;8.07;2.80;;;17.60;75.10;;;;;;4171814;28;20237;-76
2021/05/18 10:59:35;;;;;;;4.80;2.00;;;17.80;68.10;;;;;;4169696;28;20211;-76
2021/05/18 11:01:36;;;;;;;5.07;2.50;;;17.90;59.20;;;;;;4162812;28;20203;-76
2021/05/18 11:03:37;;;;;;;5.13;2.57;;;17.90;57.20;;;;;;4164456;28;20357;-78
2021/05/18 11:05:39;;;;;;;3.73;2.30;;;17.70;57.00;;;;;;4161505;28;20677;-77
2021/05/18 11:07:42;;;;;;;6.70;2.60;;;17.60;57.80;;;;;;4165228;28;20286;-76
2021/05/18 11:09:44;;;;;;;5.23;2.27;;;17.40;59.10;;;;;;4160920;28;20692;-78
2021/05/18 11:11:46;;;;;;;6.43;2.30;;;17.40;60.00;;;;;;4158299;28;20228;-77
2021/05/18 11:13:53;;;;;;;5.97;3.47;;;17.40;59.70;;;;;;4162771;28;20214;-78
2021/05/18 11:15:55;;;;;;;25.47;14.43;;;17.50;60.70;;;;;;4161226;28;20656;-77
2021/05/18 11:17:56;;;;;;;8.40;4.27;;;17.60;62.00;;;;;;4167218;28;20257;-78
2021/05/18 11:20:03;;;;;;;5.00;2.67;;;17.70;62.50;;;;;;4162231;28;20242;-77
2021/05/18 11:22:05;;;;;;;9.57;2.90;;;17.80;63.90;;;;;;4161169;28;20229;-78
2021/05/18 11:24:10;;;;;;;7.00;3.63;;;17.80;64.10;;;;;;4161259;28;20210;-78
2021/05/18 11:26:13;;;;;;;6.40;3.33;;;18.00;63.40;;;;;;4157263;28;20284;-75
2021/05/18 11:28:22;;;;;;;4.83;3.00;;;18.10;62.00;;;;;;4164329;28;20776;-78
2021/05/18 11:30:27;;;;;;;6.50;2.70;;;18.30;59.80;;;;;;4159407;28;20223;-77
2021/05/18 11:32:28;;;;;;;6.80;3.10;;;18.80;57.50;;;;;;4161285;28;20691;-77
2021/05/18 11:34:30;;;;;;;6.53;3.13;;;19.50;54.50;;;;;;4168567;28;20229;-77
2021/05/18 11:36:34;;;;;;;8.70;3.87;;;20.50;51.70;;;;;;4164010;28;20416;-77
2021/05/18 11:38:37;;;;;;;5.80;3.37;;;21.30;47.60;;;;;;4165006;28;20794;-77
2021/05/18 11:40:50;;;;;;;7.73;3.70;;;21.60;46.90;;;;;;4167979;28;20220;-76
2021/05/18 11:42:52;;;;;;;5.43;3.33;;;22.00;45.40;;;;;;4158610;28;20224;-78
2021/05/18 11:45:13;;;;;;;9.33;3.80;;;22.20;44.80;;;;;;4161432;28;20219;-77
2021/05/18 11:47:14;;;;;;;5.67;3.47;;;22.00;44.20;;;;;;4162833;28;20234;-77
2021/05/18 11:49:16;;;;;;;6.03;3.33;;;21.80;45.20;;;;;;4160795;28;20233;-77
2021/05/18 11:51:17;;;;;;;9.53;3.77;;;21.60;44.60;;;;;;4162874;28;20237;-77
2021/05/18 11:53:33;;;;;;;11.50;4.27;;;21.70;46.10;;;;;;4163150;28;20245;-77
2021/05/18 11:55:35;;;;;;;6.20;3.23;;;22.90;43.90;;;;;;4159105;28;20215;-77
2021/05/18 11:57:37;;;;;;;8.93;3.70;;;23.50;41.60;;;;;;4164873;28;20244;-77
2021/05/18 11:59:40;;;;;;;5.07;2.83;;;23.60;38.90;;;;;;4161872;28;20254;-78
2021/05/18 12:01:49;;;;;;;5.93;3.53;;;23.50;38.00;;;;;;4167886;28;20217;-77
2021/05/18 12:04:00;;;;;;;8.77;2.80;;;23.40;38.00;;;;;;4163194;28;20213;-77
2021/05/18 12:06:04;;;;;;;6.10;2.90;;;23.60;39.50;;;;;;4162551;28;20214;-77
2021/05/18 12:08:05;;;;;;;5.83;3.00;;;24.50;38.80;;;;;;4161030;28;20237;-77
2021/05/18 12:10:08;;;;;;;8.83;3.53;;;25.70;36.30;;;;;;4161728;28;20798;-80
2021/05/18 12:12:11;;;;;;;5.47;2.83;;;26.40;33.80;;;;;;4163143;28;20226;-77
2021/05/18 12:14:12;;;;;;;5.43;2.33;;;26.20;32.10;;;;;;4164486;28;20234;-79
2021/05/18 12:16:17;;;;;;;3.20;2.10;;;26.50;31.60;;;;;;4160675;28;20448;-79
2021/05/18 12:18:18;;;;;;;4.23;2.30;;;26.40;32.10;;;;;;4165803;28;20239;-79
2021/05/18 12:20:20;;;;;;;5.50;2.70;;;26.10;32.70;;;;;;4165812;28;20210;-77
2021/05/18 12:22:22;;;;;;;5.20;2.70;;;25.30;33.00;;;;;;4158926;28;20219;-77
2021/05/18 12:24:25;;;;;;;6.20;2.80;;;24.30;33.70;;;;;;4163796;28;20223;-77
2021/05/18 12:26:27;;;;;;;8.47;2.60;;;23.50;35.70;;;;;;4160120;28;20219;-77
2021/05/18 12:28:28;;;;;;;4.77;2.30;;;22.70;37.50;;;;;;4157655;28;20221;-77
2021/05/18 12:30:38;;;;;;;5.33;2.77;;;22.10;39.30;;;;;;4161559;28;20321;-76
2021/05/18 12:32:47;;;;;;;5.17;2.17;;;21.60;40.60;;;;;;4162438;28;20218;-78
2021/05/18 12:34:50;;;;;;;11.03;7.57;;;21.20;41.90;;;;;;4164648;28;20250;-78
2021/05/18 12:36:51;;;;;;;27.07;16.40;;;21.00;43.30;;;;;;4166437;28;20349;-76
2021/05/18 12:39:10;;;;;;;12.07;7.50;;;20.80;44.10;;;;;;4163848;28;20649;-76
2021/05/18 12:41:11;;;;;;;9.43;3.13;;;21.00;44.60;;;;;;4171106;28;20214;-77
2021/05/18 12:43:14;;;;;;;5.03;2.50;;;22.20;43.10;;;;;;4166661;28;20239;-77
2021/05/18 12:45:21;;;;;;;6.77;2.40;;;24.00;39.70;;;;;;4165019;28;20699;-79
2021/05/18 12:47:28;;;;;;;4.80;2.37;;;25.40;36.20;;;;;;4164521;28;20289;-79
2021/05/18 12:49:32;;;;;;;5.73;2.40;;;25.60;34.70;;;;;;4168752;28;20291;-77
2021/05/18 12:51:33;;;;;;;4.03;2.17;;;26.00;34.20;;;;;;4166688;28;20306;-77
2021/05/18 12:53:34;;;;;;;4.00;2.37;;;25.90;33.60;;;;;;4164625;28;20207;-79
2021/05/18 12:55:36;;;;;;;5.93;2.10;;;26.00;34.20;;;;;;4166615;28;20621;-79
2021/05/18 12:57:48;;;;;;;5.20;2.10;;;27.20;33.00;;;;;;4189067;23;20783;-77
2021/05/18 13:00:14;;;;;;;4.15;2.10;;;29.10;30.80;;;;;;4149629;28;20214;-77
2021/05/18 13:02:28;;;;;;;5.40;2.42;;;31.00;28.10;;;;;;4137392;28;20672;-78
2021/05/18 13:04:38;;;;;;;3.42;1.80;;;32.40;26.50;;;;;;4153338;28;20215;-78
2021/05/18 13:06:44;;;;;;;2.83;1.85;;;33.40;24.90;;;;;;4156926;28;20223;-78
2021/05/18 13:08:45;;;;;;;5.53;2.20;;;34.20;24.50;;;;;;4149338;28;20234;-78
2021/05/18 13:10:55;;;;;;;4.28;2.15;;;34.90;24.10;;;;;;4156181;28;20302;-78
2021/05/18 13:13:00;;;;;;;4.88;2.00;;;36.00;23.40;;;;;;4153657;28;20217;-79
2021/05/18 13:15:05;;;;;;;5.40;2.17;;;37.00;22.10;;;;;;4147406;28;20544;-79
2021/05/18 13:17:06;;;;;;;2.70;1.88;;;36.20;21.50;;;;;;4144705;28;20266;-79
2021/05/18 13:19:09;;;;;;;6.05;2.00;;;34.50;22.60;;;;;;4148950;28;20203;-78
2021/05/18 13:21:20;;;;;;;2.40;1.58;;;33.20;23.50;;;;;;4149148;28;20346;-78
2021/05/18 13:23:28;;;;;;;2.80;1.83;;;31.90;24.40;;;;;;4152877;28;20587;-78
2021/05/18 13:27:55;;;;;;;3.33;1.75;;;30.20;25.80;;;;;;4150672;28;20318;-78
2021/05/18 13:29:56;;;;;;;3.42;1.90;;;28.90;26.80;;;;;;4146115;28;20242;-78
2021/05/18 13:31:58;;;;;;;2.30;1.40;;;28.50;27.90;;;;;;4151309;28;20218;-79
2021/05/18 13:33:59;;;;;;;3.30;1.58;;;29.10;26.80;;;;;;4149174;28;20314;-78
2021/05/18 13:36:00;;;;;;;3.00;1.60;;;28.50;26.60;;;;;;4151127;28;20212;-76
2021/05/18 13:38:03;;;;;;;3.47;1.48;;;27.50;27.20;;;;;;4155062;28;20924;-79
2021/05/18 13:40:05;;;;;;;2.83;1.50;;;26.50;28.60;;;;;;4152097;28;20222;-78
2021/05/18 13:42:07;;;;;;;3.27;1.90;;;25.60;29.50;;;;;;4158592;28;20214;-77
2021/05/18 13:44:09;;;;;;;3.57;2.17;;;24.80;30.50;;;;;;4149742;28;20572;-78
2021/05/18 13:46:10;;;;;;;45.00;27.73;;;24.10;32.10;;;;;;4154693;28;20220;-79
2021/05/18 13:48:12;;;;;;;23.23;15.80;;;23.50;33.50;;;;;;4158787;28;20235;-77
2021/05/18 13:50:13;;;;;;;7.63;5.23;;;23.10;35.20;;;;;;4152534;28;20231;-78
2021/05/18 13:52:14;;;;;;;6.00;3.00;;;22.60;36.60;;;;;;4149673;28;20222;-78
2021/05/18 13:54:16;;;;;;;2.73;2.00;;;22.60;37.90;;;;;;4149414;28;20235;-77
2021/05/18 13:56:21;;;;;;;4.60;2.37;;;24.00;36.10;;;;;;4152584;28;20207;-79
2021/05/18 13:58:22;;;;;;;5.73;1.97;;;26.10;33.10;;;;;;4152412;28;20453;-78
2021/05/18 14:00:23;;;;;;;2.40;1.50;;;27.80;30.00;;;;;;4149625;28;20216;-79
2021/05/18 14:02:24;;;;;;;2.22;1.63;;;29.30;28.70;;;;;;4151978;28;20285;-78
2021/05/18 14:04:26;;;;;;;2.95;1.85;;;30.90;27.00;;;;;;4149627;28;20239;-80
2021/05/18 14:06:30;;;;;;;3.70;1.98;;;32.40;25.80;;;;;;4159584;28;20211;-77
2021/05/18 14:08:33;;;;;;;2.45;1.48;;;33.90;24.40;;;;;;4155748;28;20239;-78
2021/05/18 14:10:34;;;;;;;3.10;1.52;;;34.90;23.20;;;;;;4154590;28;20247;-82
2021/05/18 14:12:36;;;;;;;1.80;1.15;;;36.00;22.60;;;;;;4156271;28;20223;-81
2021/05/18 14:14:38;;;;;;;2.90;1.30;;;37.00;21.50;;;;;;4155984;28;20243;-81
2021/05/18 14:16:39;;;;;;;2.75;1.23;;;37.70;20.80;;;;;;4157279;28;20704;-80
2021/05/18 14:18:40;;;;;;;2.83;1.30;;;38.20;20.90;;;;;;4155157;28;20235;-80
2021/05/18 14:20:43;;;;;;;1.80;1.10;;;38.00;19.80;;;;;;4152724;28;20211;-79
2021/05/18 14:22:44;;;;;;;0.90;0.70;;;38.00;20.10;;;;;;4151363;28;20535;-80
2021/05/18 14:24:51;;;;;;;1.65;1.05;;;38.30;19.60;;;;;;4155391;28;20257;-78
2021/05/18 14:26:54;;;;;;;1.45;0.90;;;38.20;19.20;;;;;;4151416;28;20211;-79
2021/05/18 14:28:55;;;;;;;1.85;1.08;;;37.50;18.90;;;;;;4151230;28;20239;-78
2021/05/18 14:30:56;;;;;;;1.60;1.13;;;36.70;19.50;;;;;;4151882;28;20210;-78
2021/05/18 14:32:58;;;;;;;1.70;0.93;;;35.80;20.20;;;;;;4158422;28;20249;-78
2021/05/18 14:34:59;;;;;;;6.10;2.90;;;34.50;20.50;;;;;;4163536;28;20215;-80
2021/05/18 14:37:01;;;;;;;5.45;4.82;;;33.30;21.40;;;;;;4156154;28;20211;-75
2021/05/18 14:39:05;;;;;;;21.45;18.15;;;31.80;22.20;;;;;;4158439;28;20215;-82
2021/05/18 14:45:43;;;;;;;3.15;1.40;;;28.20;25.90;;;;;;4150330;28;20217;-79
2021/05/18 14:47:50;;;;;;;2.55;1.40;;;27.20;27.00;;;;;;4154561;28;20269;-80
2021/05/18 14:56:55;;;;;;;4.73;2.10;;;24.20;31.90;;;;;;4166707;28;20262;-79
2021/05/18 14:58:58;;;;;;;5.30;1.80;;;23.70;32.80;;;;;;4165761;28;20654;-80
2021/05/18 15:00:59;;;;;;;2.73;1.47;;;23.70;33.80;;;;;;4163815;28;20270;-79
2021/05/18 15:03:00;;;;;;;3.27;1.57;;;23.90;33.70;;;;;;4167650;28;20219;-79
2021/05/18 15:05:01;;;;;;;3.17;1.60;;;24.00;33.70;;;;;;4163688;28;20203;-79